Time;durP1;ratioP1;P1;durP2;ratioP2;P2;SDS_P1;SDS_P2;PMS_P1;PMS_P2;Temp;Humidity;BMP_temperature;BMP_pressure;BME280_temperature;BME280_humidity;BME280_pressure;Samples;Min_cycle;Max_cycle;Signal;HPM_P1;HPM_P2
2021/08/10 00:01:49;;;;;;;18.35;6.50;;;;;;;12.60;89.57;100876.06;4874978;29;20758;-85
2021/08/10 00:04:15;;;;;;;20.00;7.05;;;;;;;12.47;90.18;100870.50;4872740;29;20510;-86
2021/08/10 00:06:40;;;;;;;21.00;6.75;;;;;;;12.36;90.33;100868.22;4873754;29;20029;-84
2021/08/10 00:09:06;;;;;;;18.08;7.03;;;;;;;12.34;90.48;100864.91;4873215;29;20116;-85
2021/08/10 00:11:31;;;;;;;14.00;6.63;;;;;;;12.31;90.31;100882.28;4872545;29;20053;-85
2021/08/10 00:13:57;;;;;;;18.13;6.47;;;;;;;12.32;90.72;100875.88;4865307;29;20029;-85
2021/08/10 00:16:22;;;;;;;15.98;6.18;;;;;;;12.32;90.33;100881.25;4869692;29;20029;-85
2021/08/10 00:18:48;;;;;;;16.30;5.95;;;;;;;12.21;90.28;100863.66;4870758;29;20033;-85
2021/08/10 00:21:13;;;;;;;13.90;5.63;;;;;;;12.27;89.80;100868.31;4851851;29;20108;-85
2021/08/10 00:23:38;;;;;;;16.50;6.60;;;;;;;12.19;89.92;100854.09;4872624;29;20033;-84
2021/08/10 00:26:04;;;;;;;19.55;7.00;;;;;;;12.24;89.53;100859.78;4871944;29;20045;-86
2021/08/10 00:28:29;;;;;;;14.32;6.18;;;;;;;12.24;89.58;100863.31;4870168;29;20041;-85
2021/08/10 00:30:55;;;;;;;15.52;6.20;;;;;;;12.11;89.00;100857.72;4869514;29;20025;-85
2021/08/10 00:33:20;;;;;;;11.07;6.05;;;;;;;12.12;88.86;100864.78;4868233;29;20052;-85
2021/08/10 00:35:46;;;;;;;20.40;6.82;;;;;;;11.99;89.04;100849.25;4850586;29;20056;-85
2021/08/10 00:38:11;;;;;;;19.55;9.23;;;;;;;12.03;89.37;100860.47;4860169;29;20025;-85
2021/08/10 00:40:37;;;;;;;21.45;9.20;;;;;;;12.09;89.66;100871.38;4888472;29;20495;-86
2021/08/10 00:43:03;;;;;;;19.98;9.70;;;;;;;12.08;89.50;100861.59;4870501;29;20056;-84
2021/08/10 00:45:28;;;;;;;19.27;9.82;;;;;;;12.09;89.06;100867.81;4872363;29;20140;-85
2021/08/10 00:47:54;;;;;;;23.05;9.13;;;;;;;12.04;88.67;100860.31;4853667;29;20037;-86
2021/08/10 00:50:19;;;;;;;18.20;9.25;;;;;;;12.05;88.98;100859.28;4865488;29;20033;-85
2021/08/10 00:52:45;;;;;;;16.35;8.70;;;;;;;12.03;88.87;100857.78;4882938;29;20052;-85
2021/08/10 00:55:11;;;;;;;16.98;8.57;;;;;;;11.96;88.47;100851.44;4857801;29;20035;-85
2021/08/10 00:57:36;;;;;;;18.55;8.30;;;;;;;11.97;88.52;100853.13;4871320;29;20068;-85
2021/08/10 01:00:04;;;;;;;16.13;6.90;;;;;;;11.91;88.20;100859.22;4888413;29;20041;-85
2021/08/10 01:02:29;;;;;;;13.60;6.53;;;;;;;11.90;88.76;100865.66;4853887;29;20037;-85
2021/08/10 01:04:55;;;;;;;19.42;8.70;;;;;;;11.88;89.28;100869.38;4855284;29;20040;-85
2021/08/10 01:07:33;;;;;;;18.60;7.30;;;;;;;11.85;89.34;100856.25;4868032;29;20391;-85
2021/08/10 01:10:01;;;;;;;14.80;6.40;;;;;;;11.89;89.32;100867.53;4870243;29;20036;-85
2021/08/10 01:12:31;;;;;;;14.85;6.35;;;;;;;11.87;88.87;100864.16;4873108;29;20051;-85
2021/08/10 01:15:06;;;;;;;13.88;5.63;;;;;;;11.82;88.25;100866.53;4854112;29;20092;-86
2021/08/10 01:17:52;;;;;;;19.35;6.25;;;;;;;11.72;88.36;100857.84;4887889;29;20032;-85
2021/08/10 01:20:53;;;;;;;11.52;5.15;;;;;;;11.69;88.31;100855.53;4871866;29;20082;-85
2021/08/10 01:23:23;;;;;;;14.10;5.72;;;;;;;11.62;88.24;100863.50;4886763;29;20029;-86
2021/08/10 01:25:59;;;;;;;13.77;5.60;;;;;;;11.59;87.44;100877.31;4854007;29;20128;-86
2021/08/10 01:28:45;;;;;;;21.60;5.53;;;;;;;11.51;87.77;100875.53;4870936;29;20471;-86
2021/08/10 01:31:28;;;;;;;15.43;5.10;;;;;;;11.45;88.50;100878.91;4867926;29;20033;-85
2021/08/10 01:34:27;;;;;;;17.83;4.78;;;;;;;11.41;89.05;100880.31;4871042;29;20040;-85
2021/08/10 01:36:55;;;;;;;11.05;4.13;;;;;;;11.36;89.51;100885.38;4869275;29;20446;-85
2021/08/10 01:39:22;;;;;;;21.40;4.70;;;;;;;11.36;89.59;100885.38;4855618;29;20039;-85
2021/08/10 01:41:49;;;;;;;12.43;4.65;;;;;;;11.32;89.57;100884.06;4871335;29;20029;-85
2021/08/10 01:44:15;;;;;;;18.13;5.18;;;;;;;11.29;89.85;100892.50;4871049;29;20044;-85
2021/08/10 01:46:41;;;;;;;14.73;5.40;;;;;;;11.27;90.33;100887.28;4859268;29;20025;-85
2021/08/10 01:49:07;;;;;;;13.55;5.22;;;;;;;11.11;90.54;100863.16;4870931;29;20068;-85
2021/08/10 01:51:32;;;;;;;12.73;5.25;;;;;;;11.20;90.55;100881.78;4870874;29;20032;-85
2021/08/10 01:54:01;;;;;;;11.48;5.03;;;;;;;11.25;90.62;100883.94;4854257;29;20029;-85
2021/08/10 01:56:27;;;;;;;13.00;4.80;;;;;;;11.26;90.49;100877.53;4853282;29;20064;-85
2021/08/10 01:58:55;;;;;;;27.33;5.85;;;;;;;11.37;90.47;100885.19;4850992;29;20072;-85
2021/08/10 02:01:21;;;;;;;18.00;5.85;;;;;;;11.36;90.59;100875.44;4858701;29;20055;-85
2021/08/10 02:03:47;;;;;;;19.00;5.72;;;;;;;11.42;90.60;100877.41;4868626;29;20035;-85
2021/08/10 02:06:17;;;;;;;17.92;5.75;;;;;;;11.43;90.77;100886.34;4888732;29;20541;-85
2021/08/10 02:08:44;;;;;;;42.03;6.72;;;;;;;11.21;91.22;100861.06;4870068;29;20072;-85
2021/08/10 02:11:12;;;;;;;22.83;5.75;;;;;;;11.36;91.63;100880.84;4858377;29;21489;-85
2021/08/10 02:13:37;;;;;;;25.65;5.65;;;;;;;11.23;92.00;100872.50;4860903;29;20109;-85
2021/08/10 02:16:04;;;;;;;28.40;5.88;;;;;;;11.27;92.23;100879.19;4868283;29;20443;-86
2021/08/10 02:18:30;;;;;;;29.27;6.20;;;;;;;11.24;91.70;100882.25;4859558;29;20035;-85
2021/08/10 02:20:57;;;;;;;26.17;5.60;;;;;;;11.24;91.98;100874.16;4874071;29;20045;-85
2021/08/10 02:23:24;;;;;;;22.83;5.70;;;;;;;11.27;91.58;100889.97;4854487;29;20068;-85
2021/08/10 02:25:51;;;;;;;18.75;4.75;;;;;;;11.26;91.62;100898.22;4885284;29;20033;-85
2021/08/10 02:28:17;;;;;;;9.88;4.60;;;;;;;11.18;91.42;100886.50;4866130;29;20129;-85
2021/08/10 02:30:53;;;;;;;12.65;4.40;;;;;;;11.08;91.44;100880.47;4884532;29;20064;-85
2021/08/10 02:33:20;;;;;;;15.60;4.88;;;;;;;11.13;91.80;100896.94;4870777;29;20037;-85
2021/08/10 02:35:46;;;;;;;9.82;3.95;;;;;;;11.18;91.85;100899.13;4874434;29;20406;-85
2021/08/10 02:38:15;;;;;;;13.95;5.13;;;;;;;11.10;91.47;100897.31;4860276;29;20076;-85
2021/08/10 02:40:41;;;;;;;9.10;4.80;;;;;;;11.01;91.86;100895.69;4871354;29;20036;-85
2021/08/10 02:43:07;;;;;;;10.98;3.97;;;;;;;10.78;91.57;100850.69;4856569;29;20024;-85
2021/08/10 02:45:34;;;;;;;6.95;4.28;;;;;;;10.82;91.48;100870.00;4858276;29;20037;-85
2021/08/10 02:48:00;;;;;;;8.10;4.13;;;;;;;10.95;90.97;100893.66;4875034;29;20025;-86
2021/08/10 02:50:26;;;;;;;15.65;4.30;;;;;;;10.89;90.65;100897.91;4858139;29;20040;-85
2021/08/10 02:52:52;;;;;;;6.28;4.00;;;;;;;10.91;91.11;100895.88;4863625;29;20028;-85
2021/08/10 02:55:19;;;;;;;7.60;3.75;;;;;;;10.86;90.53;100892.03;4873647;29;20029;-85
2021/08/10 02:58:09;;;;;;;7.88;4.28;;;;;;;10.81;89.94;100894.41;4859210;29;20121;-85
2021/08/10 03:00:39;;;;;;;14.82;4.20;;;;;;;10.64;90.04;100898.97;4852208;29;20171;-85
2021/08/10 03:03:10;;;;;;;22.73;4.80;;;;;;;10.48;90.57;100892.66;4875012;29;20029;-85
2021/08/10 03:05:36;;;;;;;21.60;4.53;;;;;;;10.41;90.28;100891.66;4859552;29;20039;-86
2021/08/10 03:08:02;;;;;;;18.15;4.25;;;;;;;10.28;90.71;100888.66;4851105;29;20033;-86
2021/08/10 03:10:30;;;;;;;13.95;3.78;;;;;;;10.25;90.62;100895.19;4871628;29;20029;-85
2021/08/10 03:12:56;;;;;;;12.73;3.63;;;;;;;10.19;90.94;100892.31;4872196;29;20033;-85
2021/08/10 03:15:27;;;;;;;14.13;3.63;;;;;;;10.13;90.32;100891.16;4854393;29;20024;-85
2021/08/10 03:17:57;;;;;;;8.50;2.95;;;;;;;10.15;89.83;100905.28;4872697;29;20036;-85
2021/08/10 03:20:24;;;;;;;8.25;3.42;;;;;;;10.13;89.80;100893.84;4862199;29;20038;-85
2021/08/10 03:22:50;;;;;;;5.13;3.22;;;;;;;10.08;89.94;100904.25;4856112;29;20033;-85
2021/08/10 03:25:17;;;;;;;5.00;3.28;;;;;;;10.06;90.13;100907.13;4873463;29;20619;-85
2021/08/10 03:27:44;;;;;;;8.10;3.90;;;;;;;9.98;90.26;100895.56;4867673;29;20499;-85
2021/08/10 03:30:10;;;;;;;10.10;3.80;;;;;;;10.01;90.75;100903.28;4872048;29;20029;-85
2021/08/10 03:32:36;;;;;;;14.35;4.13;;;;;;;9.86;91.32;100874.41;4873298;29;20034;-85
2021/08/10 03:35:03;;;;;;;8.65;3.88;;;;;;;10.07;92.06;100911.50;4872848;29;20034;-85
2021/08/10 03:37:30;;;;;;;10.70;4.30;;;;;;;10.21;92.52;100922.56;4854806;29;20414;-85
2021/08/10 03:39:55;;;;;;;8.48;4.40;;;;;;;10.28;92.63;100921.75;4868357;29;20032;-85
2021/08/10 03:42:21;;;;;;;8.05;3.97;;;;;;;10.15;92.78;100886.47;4866613;29;20056;-85
2021/08/10 03:44:47;;;;;;;8.27;4.93;;;;;;;10.47;92.58;100920.53;4865614;29;20032;-85
2021/08/10 03:47:15;;;;;;;10.60;4.65;;;;;;;10.57;92.43;100918.50;4863864;29;20077;-85
2021/08/10 03:49:41;;;;;;;10.75;4.53;;;;;;;10.68;91.93;100935.28;4868312;29;20124;-85
2021/08/10 03:52:11;;;;;;;12.95;4.57;;;;;;;10.67;92.06;100930.94;4853320;29;20553;-86
2021/08/10 03:54:36;;;;;;;12.07;4.45;;;;;;;10.67;92.34;100933.63;4852697;29;20896;-85
2021/08/10 03:57:02;;;;;;;11.55;4.80;;;;;;;10.72;92.47;100933.94;4879070;29;20029;-84
2021/08/10 03:59:28;;;;;;;13.55;4.68;;;;;;;10.78;92.66;100933.25;4885100;29;20036;-85
2021/08/10 04:01:54;;;;;;;11.25;4.30;;;;;;;10.82;92.91;100929.19;4867895;29;20040;-85
2021/08/10 04:04:20;;;;;;;10.75;5.18;;;;;;;10.87;92.78;100940.25;4883639;29;20032;-86
2021/08/10 04:06:45;;;;;;;9.63;5.38;;;;;;;10.97;93.14;100940.91;4867151;29;20029;-86
2021/08/10 04:09:11;;;;;;;13.95;5.88;;;;;;;11.06;93.08;100941.72;4871224;29;20537;-86
2021/08/10 04:11:38;;;;;;;13.25;6.00;;;;;;;11.09;92.93;100940.56;4866670;29;20029;-86
2021/08/10 04:14:04;;;;;;;14.30;5.63;;;;;;;11.18;92.43;100944.88;4867606;29;20025;-86
2021/08/10 04:16:30;;;;;;;9.70;4.72;;;;;;;11.15;92.65;100935.28;4883034;29;20040;-86
2021/08/10 04:18:56;;;;;;;12.30;5.20;;;;;;;11.06;92.73;100928.28;4885535;29;20466;-86
2021/08/10 04:21:26;;;;;;;10.23;5.10;;;;;;;11.06;93.14;100924.72;4872278;29;20037;-86
2021/08/10 04:23:51;;;;;;;12.80;5.03;;;;;;;11.11;93.16;100930.41;4857364;29;20415;-87
2021/08/10 04:26:17;;;;;;;8.73;5.15;;;;;;;11.05;93.28;100921.19;4856365;29;20030;-87
2021/08/10 04:28:42;;;;;;;12.82;5.75;;;;;;;11.26;93.19;100944.81;4866512;29;20433;-86
2021/08/10 04:31:08;;;;;;;11.85;5.57;;;;;;;11.27;93.27;100933.03;4885553;29;20402;-86
2021/08/10 04:33:33;;;;;;;11.50;5.55;;;;;;;11.33;93.04;100943.13;4871216;29;20044;-86
2021/08/10 04:35:59;;;;;;;12.18;5.43;;;;;;;11.06;93.00;100919.34;4885764;29;20025;-86
2021/08/10 04:38:24;;;;;;;11.23;5.47;;;;;;;11.09;93.25;100927.09;4861231;29;20029;-85
2021/08/10 04:40:49;;;;;;;15.60;5.13;;;;;;;11.19;93.40;100946.53;4866399;29;20100;-86
2021/08/10 04:43:15;;;;;;;11.85;5.78;;;;;;;11.06;93.46;100922.91;4853854;29;20041;-87
2021/08/10 04:45:40;;;;;;;13.07;5.80;;;;;;;11.20;93.02;100948.22;4853443;29;20064;-86
2021/08/10 04:48:08;;;;;;;22.38;5.65;;;;;;;11.19;93.06;100946.53;4872296;29;20040;-87
2021/08/10 04:50:33;;;;;;;13.27;4.90;;;;;;;11.18;93.51;100956.47;4868810;29;20420;-86
2021/08/10 04:52:58;;;;;;;14.35;6.20;;;;;;;11.08;93.23;100941.53;4887343;29;20025;-87
2021/08/10 04:55:24;;;;;;;14.13;6.00;;;;;;;11.15;93.44;100942.53;4864347;29;20036;-86
2021/08/10 04:57:49;;;;;;;11.63;5.05;;;;;;;11.16;93.15;100946.88;4875415;29;20072;-86
2021/08/10 05:00:15;;;;;;;11.23;5.45;;;;;;;11.12;93.48;100954.47;4887589;29;20044;-86
2021/08/10 05:02:40;;;;;;;12.38;5.32;;;;;;;11.16;93.47;100957.66;4853696;29;20098;-86
2021/08/10 05:05:06;;;;;;;12.18;5.40;;;;;;;11.25;93.36;100955.78;4863679;29;20021;-87
2021/08/10 05:07:32;;;;;;;17.40;5.90;;;;;;;11.19;93.32;100941.16;4870387;29;20037;-86
2021/08/10 05:09:57;;;;;;;18.45;6.35;;;;;;;11.32;93.36;100962.97;4868563;29;20395;-87
2021/08/10 05:12:23;;;;;;;15.73;5.72;;;;;;;11.32;92.90;100962.13;4871203;29;20039;-86
2021/08/10 05:14:49;;;;;;;14.70;6.13;;;;;;;11.38;93.06;100961.44;4866113;29;20395;-86
2021/08/10 05:17:16;;;;;;;14.35;6.75;;;;;;;11.41;92.91;100953.84;4872334;29;20037;-86
2021/08/10 05:19:41;;;;;;;16.88;6.13;;;;;;;11.43;93.03;100951.81;4882662;29;20498;-85
2021/08/10 05:22:07;;;;;;;15.23;6.25;;;;;;;11.38;92.99;100962.28;4872457;29;20039;-86
2021/08/10 05:24:32;;;;;;;21.42;6.50;;;;;;;11.18;93.57;100934.09;4874445;29;20021;-86
2021/08/10 05:26:57;;;;;;;25.58;6.50;;;;;;;11.38;93.32;100962.28;4867403;29;20112;-86
2021/08/10 05:29:23;;;;;;;22.63;6.57;;;;;;;11.29;93.51;100957.09;4863309;29;20052;-86
2021/08/10 05:31:48;;;;;;;17.42;6.63;;;;;;;11.39;93.53;100968.50;4887473;29;20104;-86
2021/08/10 05:34:14;;;;;;;19.58;6.15;;;;;;;11.42;93.73;100968.13;4857301;29;20052;-86
2021/08/10 05:36:39;;;;;;;16.67;6.35;;;;;;;11.34;93.36;100943.94;4860131;29;20959;-86
2021/08/10 05:39:04;;;;;;;21.17;7.15;;;;;;;11.31;93.57;100950.53;4857255;29;20040;-87
2021/08/10 05:41:30;;;;;;;19.13;7.07;;;;;;;11.39;93.66;100963.09;4863719;29;20029;-87
2021/08/10 05:43:56;;;;;;;18.73;7.32;;;;;;;11.47;93.80;100962.22;4887964;29;20037;-86
2021/08/10 05:46:21;;;;;;;24.30;6.75;;;;;;;11.52;93.71;100954.47;4858764;29;20077;-87
2021/08/10 05:48:47;;;;;;;20.15;6.45;;;;;;;11.62;93.83;100958.59;4870698;29;20037;-86
2021/08/10 05:51:12;;;;;;;14.13;5.82;;;;;;;11.59;93.97;100947.31;4871555;29;20421;-86
2021/08/10 05:53:37;;;;;;;17.45;6.75;;;;;;;11.75;93.86;100957.16;4856908;29;20490;-85
2021/08/10 05:56:03;;;;;;;14.02;6.53;;;;;;;11.75;93.96;100960.72;4866131;29;20070;-87
2021/08/10 05:58:28;;;;;;;11.70;6.10;;;;;;;11.77;93.68;100955.97;4873084;29;20040;-86
2021/08/10 06:00:54;;;;;;;18.45;6.82;;;;;;;11.84;93.70;100954.25;4860876;29;20041;-86
2021/08/10 06:03:20;;;;;;;17.25;6.35;;;;;;;11.89;93.33;100959.13;4853009;29;20068;-87
2021/08/10 06:05:45;;;;;;;16.38;6.93;;;;;;;11.90;93.26;100951.88;4857562;29;20040;-87
2021/08/10 06:08:11;;;;;;;13.73;6.03;;;;;;;11.93;93.57;100956.91;4872217;29;20426;-87
2021/08/10 06:10:36;;;;;;;16.92;6.35;;;;;;;11.94;93.56;100953.22;4871769;29;20093;-86
2021/08/10 06:13:02;;;;;;;16.30;6.80;;;;;;;12.04;93.64;100961.84;4857147;29;20116;-86
2021/08/10 06:15:28;;;;;;;14.82;6.53;;;;;;;12.01;93.63;100954.16;4869783;29;20113;-87
2021/08/10 06:17:54;;;;;;;12.65;6.10;;;;;;;12.10;93.39;100959.28;4858132;29;20465;-86
2021/08/10 06:20:20;;;;;;;12.85;6.18;;;;;;;12.14;93.56;100962.47;4861392;29;20037;-87
2021/08/10 06:22:46;;;;;;;13.52;6.07;;;;;;;12.17;93.71;100954.03;4873046;29;20032;-86
2021/08/10 06:25:11;;;;;;;13.43;6.28;;;;;;;12.26;93.63;100961.00;4860501;29;20414;-86
2021/08/10 06:27:37;;;;;;;12.55;6.30;;;;;;;12.38;93.43;100960.56;4875408;29;20035;-87
2021/08/10 06:30:04;;;;;;;16.00;7.10;;;;;;;12.38;93.32;100947.09;4870018;29;20472;-85
2021/08/10 06:32:30;;;;;;;13.88;6.28;;;;;;;12.50;93.11;100953.72;4881956;29;20115;-86
2021/08/10 06:34:55;;;;;;;14.63;6.22;;;;;;;12.56;92.88;100955.69;4869706;29;20468;-84
2021/08/10 06:37:21;;;;;;;13.75;6.53;;;;;;;12.53;92.82;100947.97;4856700;29;20038;-88
2021/08/10 06:39:46;;;;;;;13.00;6.57;;;;;;;12.63;92.73;100962.03;4897283;29;20116;-88
2021/08/10 06:42:12;;;;;;;12.50;6.00;;;;;;;12.69;92.94;100965.84;4883436;29;20068;-86
2021/08/10 06:44:37;;;;;;;16.00;8.27;;;;;;;12.73;92.47;100968.00;4862126;29;20052;-86
2021/08/10 06:47:03;;;;;;;18.27;7.97;;;;;;;12.73;92.67;100970.69;4869975;29;20029;-86
2021/08/10 06:49:28;;;;;;;19.38;11.02;;;;;;;12.72;92.74;100965.47;4864944;29;20525;-86
2021/08/10 06:51:54;;;;;;;24.92;11.68;;;;;;;12.69;92.86;100958.56;4869320;29;20151;-86
2021/08/10 06:54:19;;;;;;;17.40;8.32;;;;;;;12.80;92.64;100962.69;4887091;29;20061;-87
2021/08/10 06:56:45;;;;;;;14.23;7.05;;;;;;;12.86;92.35;100961.09;4858930;29;20029;-86
2021/08/10 06:59:10;;;;;;;14.80;7.15;;;;;;;12.66;92.33;100933.84;4860571;29;20032;-87
2021/08/10 07:01:36;;;;;;;14.20;7.22;;;;;;;12.93;92.21;100959.34;4877423;29;20029;-87
2021/08/10 07:04:01;;;;;;;12.70;6.60;;;;;;;12.97;92.39;100964.19;4860816;29;20031;-87
2021/08/10 07:06:27;;;;;;;14.38;6.97;;;;;;;12.96;92.37;100961.66;4877144;29;20025;-85
2021/08/10 07:08:54;;;;;;;12.77;6.68;;;;;;;12.95;92.38;100966.22;4868344;29;20025;-86
2021/08/10 07:11:20;;;;;;;17.00;7.65;;;;;;;12.99;92.62;100969.38;4871295;29;20123;-86
2021/08/10 07:13:46;;;;;;;13.05;7.20;;;;;;;12.98;92.49;100967.72;4870157;29;20033;-87
2021/08/10 07:16:11;;;;;;;13.75;7.28;;;;;;;13.03;92.35;100961.75;4876570;29;20044;-86
2021/08/10 07:18:37;;;;;;;13.95;7.30;;;;;;;13.08;92.50;100962.88;4872004;29;20102;-87
2021/08/10 07:21:03;;;;;;;15.57;7.53;;;;;;;13.13;92.35;100967.72;4870569;29;20032;-86
2021/08/10 07:23:28;;;;;;;15.02;7.68;;;;;;;13.21;92.55;100978.41;4860693;29;20025;-86
2021/08/10 07:25:54;;;;;;;16.67;7.05;;;;;;;13.25;92.55;100974.28;4847085;29;20053;-87
2021/08/10 07:28:19;;;;;;;15.18;8.63;;;;;;;13.25;92.57;100965.34;4767445;29;20699;-87
2021/08/10 07:30:45;;;;;;;13.77;7.40;;;;;;;13.33;92.40;100976.91;4877415;29;20115;-87
2021/08/10 07:33:10;;;;;;;16.50;8.82;;;;;;;13.35;92.46;100976.75;4870655;29;20029;-87
2021/08/10 07:35:36;;;;;;;14.40;7.05;;;;;;;13.35;92.26;100971.34;4882075;29;20033;-87
2021/08/10 07:38:02;;;;;;;12.35;7.85;;;;;;;13.43;92.37;100995.53;4906326;29;20021;-87
2021/08/10 07:40:28;;;;;;;14.57;8.10;;;;;;;13.38;91.87;100974.50;4881217;29;20060;-87
2021/08/10 07:42:53;;;;;;;12.32;7.53;;;;;;;13.44;91.89;100986.41;4886302;29;20032;-89
2021/08/10 07:45:18;;;;;;;18.65;7.78;;;;;;;13.47;91.80;100988.75;4883578;29;20570;-87
2021/08/10 07:47:44;;;;;;;15.32;7.50;;;;;;;13.50;92.12;100976.72;4873697;29;20025;-88
2021/08/10 07:50:12;;;;;;;15.23;7.85;;;;;;;13.59;92.05;100992.63;4886770;29;20371;-88
2021/08/10 07:52:38;;;;;;;14.80;7.35;;;;;;;13.54;91.98;100981.53;4880430;29;20058;-89
2021/08/10 07:55:04;;;;;;;12.75;7.15;;;;;;;13.63;91.91;100993.94;4872274;29;20053;-88
2021/08/10 07:57:29;;;;;;;15.10;7.65;;;;;;;13.64;91.84;100987.47;4887524;29;20059;-88
2021/08/10 07:59:55;;;;;;;11.60;7.47;;;;;;;13.72;91.78;100986.53;4918149;29;20029;-87
2021/08/10 08:02:20;;;;;;;20.23;7.78;;;;;;;13.70;91.50;100982.34;4875431;29;20033;-88
2021/08/10 08:04:45;;;;;;;14.60;7.18;;;;;;;13.76;91.09;100984.28;4871702;29;20029;-88
2021/08/10 08:07:11;;;;;;;16.02;7.78;;;;;;;13.84;91.26;100989.59;4876293;29;20029;-87
2021/08/10 08:09:36;;;;;;;16.23;7.07;;;;;;;13.85;90.97;100986.69;4877309;29;20029;-88
2021/08/10 08:12:02;;;;;;;12.25;6.90;;;;;;;13.89;90.36;100989.00;4915295;29;20036;-87
2021/08/10 08:14:29;;;;;;;18.30;8.18;;;;;;;13.90;90.36;100991.50;4889932;29;20045;-89
2021/08/10 08:16:58;;;;;;;15.90;7.20;;;;;;;13.82;90.47;100988.94;4888112;29;20069;-87
2021/08/10 08:19:29;;;;;;;14.20;7.90;;;;;;;13.85;90.74;100994.78;4873665;29;20029;-87
2021/08/10 08:21:55;;;;;;;13.82;7.20;;;;;;;13.85;90.60;101002.06;4880574;29;20486;-87
2021/08/10 08:24:20;;;;;;;15.30;8.27;;;;;;;13.75;90.68;100988.84;4863208;29;20068;-88
2021/08/10 08:26:46;;;;;;;21.35;9.18;;;;;;;13.77;90.78;100991.38;4899547;29;20069;-86
2021/08/10 08:29:11;;;;;;;21.08;8.25;;;;;;;13.79;91.22;101000.97;4887558;29;20116;-87
2021/08/10 08:31:37;;;;;;;19.58;8.95;;;;;;;13.86;91.39;100998.31;4873149;29;20037;-88
2021/08/10 08:34:02;;;;;;;18.10;8.23;;;;;;;13.76;91.20;100981.56;4887808;29;20052;-87
2021/08/10 08:36:27;;;;;;;16.13;7.85;;;;;;;13.88;91.39;101001.66;4882992;29;20033;-87
2021/08/10 08:38:53;;;;;;;15.05;7.72;;;;;;;13.87;91.53;100999.19;4874184;29;20033;-87
2021/08/10 08:41:32;;;;;;;18.25;7.68;;;;;;;13.93;91.63;101014.63;4874445;29;20108;-87
2021/08/10 08:43:57;;;;;;;22.70;9.52;;;;;;;13.97;91.61;101014.06;4880090;29;20088;-86
2021/08/10 08:46:23;;;;;;;17.50;8.23;;;;;;;13.94;91.70;101003.59;4878725;29;20033;-86
2021/08/10 08:48:49;;;;;;;22.30;10.80;;;;;;;13.98;91.86;101009.47;4869671;29;20028;-86
2021/08/10 08:51:19;;;;;;;26.63;8.75;;;;;;;14.00;91.98;101016.38;4870309;29;20028;-86
2021/08/10 08:53:54;;;;;;;23.58;8.93;;;;;;;14.02;91.81;101014.28;4871382;29;20080;-87
2021/08/10 08:56:21;;;;;;;19.50;8.63;;;;;;;14.06;91.98;101012.06;4887067;29;20063;-88
2021/08/10 08:58:48;;;;;;;21.65;9.38;;;;;;;14.14;91.79;101020.03;4882817;29;20048;-87
2021/08/10 09:01:13;;;;;;;23.33;9.27;;;;;;;14.25;91.73;101014.09;4859096;29;20045;-86
2021/08/10 09:03:39;;;;;;;21.73;9.05;;;;;;;14.37;91.39;101008.16;4861323;29;20044;-86
2021/08/10 09:06:04;;;;;;;21.98;9.90;;;;;;;14.53;91.47;101018.78;4866244;29;20029;-86
2021/08/10 09:08:31;;;;;;;24.13;9.73;;;;;;;14.60;90.69;101019.63;4873938;29;20024;-86
2021/08/10 09:11:03;;;;;;;31.27;14.20;;;;;;;14.61;90.61;101020.50;4873358;29;20028;-86
2021/08/10 09:13:29;;;;;;;31.42;16.40;;;;;;;14.56;90.18;101012.97;4867758;29;20091;-87
2021/08/10 09:15:59;;;;;;;22.40;10.82;;;;;;;14.49;89.88;101004.75;4863661;29;20168;-85
2021/08/10 09:18:25;;;;;;;20.08;8.68;;;;;;;14.64;90.16;101020.94;4873524;29;20029;-87
2021/08/10 09:21:08;;;;;;;18.60;8.50;;;;;;;14.81;89.69;101023.34;4873690;29;20043;-87
2021/08/10 09:23:38;;;;;;;17.50;8.55;;;;;;;14.93;89.35;101028.03;4867993;29;20029;-86
2021/08/10 09:26:04;;;;;;;19.95;7.80;;;;;;;14.98;88.98;101026.56;4863518;29;20465;-86
2021/08/10 09:28:33;;;;;;;18.95;7.93;;;;;;;14.96;89.06;101029.50;4859718;29;20106;-87
2021/08/10 09:31:38;;;;;;;19.33;7.70;;;;;;;14.99;88.50;101029.09;4863817;29;20025;-87
2021/08/10 09:34:28;;;;;;;18.85;7.57;;;;;;;15.01;88.48;101018.06;4874790;29;20401;-86
2021/08/10 09:36:54;;;;;;;16.85;8.02;;;;;;;15.04;88.52;101025.81;4873379;29;20029;-86
2021/08/10 09:39:34;;;;;;;21.02;8.77;;;;;;;15.11;88.38;101018.53;4858671;29;20021;-86
2021/08/10 09:42:01;;;;;;;19.85;9.27;;;;;;;15.17;87.88;101025.88;4864003;29;20112;-87
2021/08/10 09:44:26;;;;;;;21.17;8.93;;;;;;;15.16;87.70;101019.63;4889986;29;20036;-87
2021/08/10 09:46:53;;;;;;;17.73;8.85;;;;;;;15.27;87.51;101025.50;4866467;29;20029;-86
2021/08/10 09:49:20;;;;;;;18.67;8.95;;;;;;;15.36;87.04;101014.31;4873839;29;20123;-87
2021/08/10 09:51:50;;;;;;;14.27;7.07;;;;;;;15.49;86.40;101018.94;4871926;29;20088;-86
2021/08/10 09:54:17;;;;;;;17.98;7.97;;;;;;;15.67;86.23;101017.56;4874123;29;20056;-86
2021/08/10 09:56:53;;;;;;;13.13;6.25;;;;;;;15.80;85.77;101004.94;4899123;29;20453;-85
2021/08/10 09:59:20;;;;;;;15.38;6.57;;;;;;;15.92;84.53;101012.47;4871357;29;20025;-86
2021/08/10 10:01:48;;;;;;;11.48;5.90;;;;;;;15.87;83.51;101007.63;4858103;29;20088;-86
2021/08/10 10:04:24;;;;;;;11.57;6.72;;;;;;;15.99;83.07;101018.75;4883605;29;20368;-86
2021/08/10 10:06:57;;;;;;;14.10;6.68;;;;;;;16.07;82.55;101018.53;4874871;29;20025;-87
2021/08/10 10:09:26;;;;;;;12.32;6.22;;;;;;;16.13;82.25;101016.88;4871145;29;20056;-87
2021/08/10 10:11:53;;;;;;;11.45;6.53;;;;;;;16.24;81.89;101017.09;4870100;29;20026;-88
2021/08/10 10:14:26;;;;;;;9.75;4.88;;;;;;;16.22;81.45;100999.34;4899390;29;20033;-87
2021/08/10 10:16:52;;;;;;;11.25;6.68;;;;;;;16.32;81.29;101009.81;4880401;29;20025;-88
2021/08/10 10:19:20;;;;;;;9.48;5.53;;;;;;;16.37;80.89;101019.00;4870477;29;20040;-87
2021/08/10 10:21:48;;;;;;;13.15;5.53;;;;;;;16.33;80.44;101019.63;4873580;29;20024;-87
2021/08/10 10:24:15;;;;;;;14.73;6.60;;;;;;;16.22;80.24;100989.34;4900672;29;20025;-87
2021/08/10 10:26:43;;;;;;;15.98;9.55;;;;;;;16.54;80.14;101016.72;4872796;29;20036;-87
2021/08/10 10:29:15;;;;;;;8.38;4.82;;;;;;;16.71;78.92;101015.22;4874307;29;20029;-87
2021/08/10 10:31:42;;;;;;;9.33;4.60;;;;;;;16.78;77.77;101009.00;4877230;29;20116;-86
2021/08/10 10:34:12;;;;;;;8.77;4.35;;;;;;;16.77;77.08;101008.16;4873944;29;20033;-87
2021/08/10 10:36:40;;;;;;;8.32;4.05;;;;;;;16.89;76.44;101020.06;4863301;29;20043;-86
2021/08/10 10:39:07;;;;;;;16.20;5.10;;;;;;;16.97;76.25;101016.28;4875983;29;20490;-86
2021/08/10 10:41:34;;;;;;;7.68;3.80;;;;;;;17.07;75.56;101013.16;4864388;29;20040;-86
2021/08/10 10:43:59;;;;;;;9.55;6.70;;;;;;;17.17;75.57;101009.97;4905074;29;20044;-86
2021/08/10 10:46:35;;;;;;;15.65;6.75;;;;;;;17.34;75.35;101013.91;4864590;29;20059;-86
2021/08/10 10:49:02;;;;;;;8.85;4.90;;;;;;;17.45;74.69;101007.78;4859833;29;20108;-86
2021/08/10 10:51:38;;;;;;;10.40;4.90;;;;;;;17.64;74.05;101006.03;4902864;29;20641;-86
2021/08/10 10:54:23;;;;;;;9.25;4.78;;;;;;;17.73;73.74;100998.44;4876131;29;20040;-86
2021/08/10 10:56:50;;;;;;;11.45;5.47;;;;;;;17.89;73.21;101003.44;4860809;29;20032;-87
2021/08/10 10:59:21;;;;;;;8.45;3.85;;;;;;;18.00;72.11;100997.28;4868493;29;20029;-87
2021/08/10 11:01:46;;;;;;;7.13;4.85;;;;;;;18.04;71.47;100994.13;4877775;29;20055;-87
2021/08/10 11:04:13;;;;;;;20.42;5.05;;;;;;;18.15;70.76;100990.69;4869557;29;20566;-87
2021/08/10 11:06:44;;;;;;;6.28;3.72;;;;;;;18.43;69.91;100998.44;4866356;29;20104;-86
2021/08/10 11:09:36;;;;;;;7.22;4.18;;;;;;;18.52;68.86;100991.66;4855392;29;20118;-86
2021/08/10 11:12:03;;;;;;;8.82;4.00;;;;;;;18.63;68.33;100993.66;4886808;29;20029;-87
2021/08/10 11:14:37;;;;;;;9.82;3.95;;;;;;;18.76;67.64;100998.19;4888008;29;20410;-87
2021/08/10 11:17:12;;;;;;;5.43;3.58;;;;;;;18.69;66.43;100994.66;4876562;29;20513;-87
2021/08/10 11:19:43;;;;;;;7.78;3.63;;;;;;;18.66;66.16;100986.94;4875475;29;20026;-87
2021/08/10 11:22:15;;;;;;;6.50;4.25;;;;;;;18.74;66.75;100989.38;4863994;29;20044;-87